createdAt,value
2018-11-04T00:01:01.425Z,21.33
2018-11-04T00:03:32.798Z,19.53
2018-11-04T00:06:03.938Z,20.60
2018-11-04T00:08:35.166Z,22.30
2018-11-04T00:11:06.749Z,20.17
2018-11-04T00:13:37.941Z,19.17
2018-11-04T00:16:09.198Z,17.20
2018-11-04T00:18:40.588Z,18.57
2018-11-04T00:21:11.795Z,20.67
2018-11-04T00:23:43.202Z,17.33
2018-11-04T00:26:14.445Z,18.13
2018-11-04T00:28:45.752Z,20.03
2018-11-04T00:31:16.721Z,19.00
2018-11-04T00:33:48.053Z,17.00
2018-11-04T00:36:19.174Z,20.27
2018-11-04T00:38:50.506Z,21.50
2018-11-04T00:41:21.743Z,18.87
2018-11-04T00:43:52.987Z,19.23
2018-11-04T00:46:24.194Z,20.27
2018-11-04T00:48:55.455Z,19.70
2018-11-04T00:51:26.524Z,20.50
2018-11-04T00:53:57.799Z,19.50
2018-11-04T00:56:28.898Z,19.87
2018-11-04T00:59:00.235Z,19.17
2018-11-04T01:01:31.260Z,16.47
2018-11-04T01:04:02.348Z,17.07
2018-11-04T01:06:33.354Z,18.73
2018-11-04T01:09:05.623Z,21.17
2018-11-04T01:11:36.748Z,18.50
2018-11-04T01:14:07.724Z,16.63
2018-11-04T01:16:38.882Z,22.47
2018-11-04T01:19:10.214Z,16.47
2018-11-04T01:21:41.229Z,18.13
2018-11-04T01:24:12.413Z,19.10
2018-11-04T01:26:43.670Z,19.10
2018-11-04T01:29:15.088Z,18.83
2018-11-04T01:31:46.126Z,20.20
2018-11-04T01:34:17.309Z,16.00
2018-11-04T01:36:48.442Z,17.47
2018-11-04T01:39:19.779Z,15.97
2018-11-04T01:41:50.835Z,18.27
2018-11-04T01:44:21.975Z,18.17
2018-11-04T01:46:53.292Z,17.83
2018-11-04T01:49:24.525Z,18.37
2018-11-04T01:51:56.096Z,20.40
2018-11-04T01:54:27.335Z,20.20
2018-11-04T01:56:58.464Z,18.40
2018-11-04T01:59:29.525Z,17.63
2018-11-04T02:02:00.541Z,15.60
2018-11-04T02:04:31.715Z,18.53
2018-11-04T02:07:02.877Z,19.07
2018-11-04T02:09:34.114Z,19.50
2018-11-04T02:12:05.281Z,16.77
2018-11-04T02:14:36.379Z,18.10
2018-11-04T02:17:07.962Z,14.97
2018-11-04T02:19:39.061Z,15.80
2018-11-04T02:22:10.176Z,15.80
2018-11-04T02:24:41.327Z,16.17
2018-11-04T02:27:12.375Z,17.03
2018-11-04T02:29:43.626Z,17.40
2018-11-04T02:32:14.933Z,15.00
2018-11-04T02:34:46.133Z,18.13
2018-11-04T02:37:17.393Z,16.50
2018-11-04T02:39:48.721Z,17.57
2018-11-04T02:42:19.813Z,17.77
2018-11-04T02:44:50.905Z,20.07
2018-11-04T02:47:22.073Z,17.20
2018-11-04T02:49:53.378Z,16.27
2018-11-04T02:52:24.575Z,17.13
2018-11-04T02:54:55.790Z,18.53
2018-11-04T02:57:27.033Z,15.07
2018-11-04T02:59:58.079Z,19.83
2018-11-04T03:02:29.092Z,18.90
2018-11-04T03:05:00.035Z,17.27
2018-11-04T03:07:31.038Z,18.60
2018-11-04T03:10:02.257Z,17.23
2018-11-04T03:12:33.410Z,20.50
2018-11-04T03:15:04.495Z,20.27
2018-11-04T03:17:35.930Z,14.97
2018-11-04T03:20:07.261Z,19.13
2018-11-04T03:22:38.326Z,22.13
2018-11-04T03:25:09.540Z,19.33
2018-11-04T03:27:40.615Z,17.43
2018-11-04T03:30:11.742Z,21.47
2018-11-04T03:32:43.092Z,18.73
2018-11-04T03:35:14.201Z,18.23
2018-11-04T03:37:45.286Z,19.80
2018-11-04T03:40:16.631Z,17.13
2018-11-04T03:42:47.941Z,19.47
2018-11-04T03:45:19.188Z,18.70
2018-11-04T03:47:50.434Z,21.30
2018-11-04T03:50:21.590Z,17.80
2018-11-04T03:52:52.638Z,21.57
2018-11-04T03:55:23.821Z,19.23
2018-11-04T03:57:54.899Z,19.33
2018-11-04T04:00:26.000Z,19.60
2018-11-04T04:02:57.197Z,24.53
2018-11-04T04:05:28.401Z,18.30
2018-11-04T04:07:59.491Z,19.43
2018-11-04T04:10:30.648Z,20.97
2018-11-04T04:15:41.461Z,22.73
2018-11-04T04:18:12.615Z,24.80
2018-11-04T04:20:43.916Z,20.20
2018-11-04T04:23:15.168Z,22.87
2018-11-04T04:25:46.314Z,19.13
2018-11-04T04:28:17.397Z,24.27
2018-11-04T04:30:48.494Z,23.20
2018-11-04T04:33:19.781Z,24.77
2018-11-04T04:35:50.998Z,21.30
2018-11-04T04:38:22.325Z,22.03
2018-11-04T04:40:53.608Z,18.77
2018-11-04T04:43:24.829Z,22.07
2018-11-04T04:45:56.003Z,19.83
2018-11-04T04:48:27.207Z,23.53
2018-11-04T04:50:58.600Z,19.50
2018-11-04T04:53:29.745Z,21.03
2018-11-04T04:56:00.879Z,19.40
2018-11-04T04:58:32.122Z,25.03
2018-11-04T05:01:03.248Z,20.00
2018-11-04T05:03:34.430Z,21.67
2018-11-04T05:06:05.603Z,19.03
2018-11-04T05:08:36.767Z,20.63
2018-11-04T05:11:08.072Z,19.00
2018-11-04T05:13:39.257Z,20.93
2018-11-04T05:16:10.284Z,22.10
2018-11-04T05:18:41.610Z,20.97
2018-11-04T05:21:12.777Z,21.37
2018-11-04T05:23:43.799Z,19.17
2018-11-04T05:26:15.606Z,20.23
2018-11-04T05:28:46.756Z,23.83
2018-11-04T05:31:17.844Z,20.57
2018-11-04T05:33:49.028Z,24.33
2018-11-04T05:36:20.395Z,24.03
2018-11-04T05:38:51.738Z,23.73
2018-11-04T05:41:22.862Z,20.37
2018-11-04T05:43:54.481Z,24.83
2018-11-04T05:46:25.658Z,24.43
2018-11-04T05:48:56.820Z,23.33
2018-11-04T05:51:27.976Z,22.77
2018-11-04T05:53:59.151Z,25.07
2018-11-04T05:56:31.079Z,23.17
2018-11-04T05:59:02.959Z,21.57
2018-11-04T06:01:34.163Z,21.57
2018-11-04T06:04:05.374Z,22.63
2018-11-04T06:06:36.506Z,25.33
2018-11-04T06:09:09.791Z,24.17
2018-11-04T06:11:40.985Z,28.03
2018-11-04T06:14:12.252Z,22.07
2018-11-04T06:16:43.379Z,26.17
2018-11-04T06:19:14.636Z,22.23
2018-11-04T06:21:45.718Z,24.30
2018-11-04T06:24:16.928Z,26.53
2018-11-04T06:26:48.202Z,23.33
2018-11-04T06:29:19.418Z,24.97
2018-11-04T06:31:50.497Z,26.17
2018-11-04T06:34:21.836Z,26.13
2018-11-04T06:36:52.943Z,25.97
2018-11-04T06:39:24.249Z,25.87
2018-11-04T06:41:55.501Z,21.67
2018-11-04T06:44:26.768Z,23.43
2018-11-04T06:46:57.908Z,23.77
2018-11-04T06:49:29.059Z,28.67
2018-11-04T06:52:00.291Z,22.47
2018-11-04T06:54:32.461Z,24.67
2018-11-04T06:57:03.621Z,26.37
2018-11-04T06:59:34.826Z,24.37
2018-11-04T07:02:05.978Z,24.13
2018-11-04T07:04:37.733Z,27.80
2018-11-04T07:07:14.061Z,25.43
2018-11-04T07:09:45.169Z,24.27
2018-11-04T07:12:19.534Z,29.57
2018-11-04T07:14:50.718Z,28.17
2018-11-04T07:17:21.948Z,24.40
2018-11-04T07:19:53.361Z,27.90
2018-11-04T07:22:24.638Z,22.93
2018-11-04T07:24:56.656Z,22.27
2018-11-04T07:27:27.836Z,26.33
2018-11-04T07:29:59.209Z,25.47
2018-11-04T07:32:30.382Z,24.13
2018-11-04T07:35:01.642Z,25.60
2018-11-04T07:37:32.967Z,25.53
2018-11-04T07:40:04.027Z,25.77
2018-11-04T07:42:35.126Z,28.33
2018-11-04T07:45:06.698Z,27.03
2018-11-04T07:47:37.844Z,26.77
2018-11-04T07:50:14.235Z,26.27
2018-11-04T07:52:45.732Z,27.63
2018-11-04T07:55:16.865Z,29.73
2018-11-04T07:57:48.071Z,30.20
2018-11-04T08:00:19.227Z,29.07
2018-11-04T08:02:50.343Z,30.73
2018-11-04T08:05:21.503Z,30.03
2018-11-04T08:07:54.324Z,29.93
2018-11-04T08:10:25.469Z,37.00
2018-11-04T08:12:56.691Z,32.77
2018-11-04T08:15:28.623Z,31.47
2018-11-04T08:18:02.288Z,27.83
2018-11-04T08:20:34.742Z,31.93
2018-11-04T08:23:06.167Z,32.70
2018-11-04T08:25:37.457Z,34.47
2018-11-04T08:28:08.979Z,30.23
2018-11-04T08:30:40.844Z,38.97
2018-11-04T08:33:14.544Z,28.33
2018-11-04T08:35:51.553Z,31.33
2018-11-04T08:38:23.709Z,34.83
2018-11-04T08:40:55.753Z,31.90
2018-11-04T08:43:27.623Z,30.20
2018-11-04T08:45:58.942Z,31.30
2018-11-04T08:48:31.154Z,29.23
2018-11-04T08:51:02.583Z,32.00
2018-11-04T08:53:35.798Z,32.37
2018-11-04T08:56:08.522Z,30.57
2018-11-04T08:58:43.024Z,30.40
2018-11-04T09:01:17.589Z,31.50
2018-11-04T09:03:48.694Z,31.83
2018-11-04T09:06:20.041Z,29.87
2018-11-04T09:08:51.714Z,30.97
2018-11-04T09:11:23.427Z,27.87
2018-11-04T09:13:55.024Z,32.17
2018-11-04T09:16:26.950Z,28.30
2018-11-04T09:18:59.253Z,31.37
2018-11-04T09:21:31.036Z,30.13
2018-11-04T09:24:02.866Z,31.40
2018-11-04T09:26:35.071Z,33.50
2018-11-04T09:29:06.758Z,31.43
2018-11-04T09:31:50.026Z,31.97
2018-11-04T09:34:21.362Z,32.63
2018-11-04T09:36:52.632Z,29.70
2018-11-04T09:39:23.920Z,25.83
2018-11-04T09:41:55.102Z,28.87
2018-11-04T09:44:26.712Z,30.87
2018-11-04T09:46:59.284Z,27.50
2018-11-04T09:49:30.536Z,31.20
2018-11-04T09:52:02.501Z,31.73
2018-11-04T09:54:35.333Z,25.80
2018-11-04T09:57:07.930Z,29.17
2018-11-04T09:59:40.598Z,28.93
2018-11-04T10:02:11.942Z,30.37
2018-11-04T10:04:43.205Z,31.17
2018-11-04T10:07:14.395Z,31.37
2018-11-04T10:09:45.758Z,31.87
2018-11-04T10:12:17.301Z,28.47
2018-11-04T10:14:48.404Z,29.03
2018-11-04T10:17:19.696Z,28.23
2018-11-04T10:19:51.270Z,29.33
2018-11-04T10:22:22.182Z,28.77
2018-11-04T10:24:53.433Z,27.80
2018-11-04T10:27:24.715Z,31.63
2018-11-04T10:29:55.946Z,26.73
2018-11-04T10:32:27.028Z,30.60
2018-11-04T10:34:58.214Z,27.47
2018-11-04T10:37:29.613Z,28.70
2018-11-04T10:40:00.961Z,29.00
2018-11-04T10:42:31.989Z,27.97
2018-11-04T10:45:03.184Z,30.27
2018-11-04T10:47:43.670Z,31.73
2018-11-04T10:50:14.755Z,30.97
2018-11-04T10:52:45.860Z,30.20
2018-11-04T10:55:16.853Z,25.60
2018-11-04T10:57:48.108Z,27.93
2018-11-04T11:00:36.875Z,26.93
2018-11-04T11:03:08.412Z,39.20
2018-11-04T11:05:39.528Z,31.43
2018-11-04T11:08:13.614Z,32.47
2018-11-04T11:10:44.868Z,33.00
2018-11-04T11:13:16.163Z,33.00
2018-11-04T11:15:47.425Z,31.77
2018-11-04T11:18:19.350Z,28.93
2018-11-04T11:20:50.598Z,31.83
2018-11-04T11:23:21.824Z,30.23
2018-11-04T11:25:53.036Z,30.73
2018-11-04T11:28:24.248Z,30.83
2018-11-04T11:30:55.386Z,32.60
2018-11-04T11:33:26.574Z,31.30
2018-11-04T11:35:57.755Z,28.93
2018-11-04T11:38:29.128Z,32.83
2018-11-04T11:41:00.425Z,30.60
2018-11-04T11:43:31.588Z,32.17
2018-11-04T11:46:03.030Z,28.20
2018-11-04T11:48:34.232Z,34.47
2018-11-04T11:51:05.460Z,32.20
2018-11-04T11:53:36.734Z,30.83
2018-11-04T11:56:09.094Z,32.27
2018-11-04T11:58:40.442Z,32.27
2018-11-04T12:01:11.721Z,32.80
2018-11-04T12:03:42.950Z,34.33
2018-11-04T12:06:14.062Z,41.90
2018-11-04T12:08:45.416Z,35.13
2018-11-04T12:11:16.670Z,34.70
2018-11-04T12:13:47.956Z,31.17
2018-11-04T12:16:19.281Z,29.97
2018-11-04T12:18:50.530Z,33.50
2018-11-04T12:21:21.701Z,33.30
2018-11-04T12:23:53.037Z,32.07
2018-11-04T12:26:24.377Z,30.20
2018-11-04T12:28:58.230Z,32.63
2018-11-04T12:31:29.537Z,33.63
2018-11-04T12:34:00.883Z,36.13
2018-11-04T12:36:32.176Z,35.33
2018-11-04T12:39:06.067Z,33.10
2018-11-04T12:41:37.213Z,32.33
2018-11-04T12:44:08.495Z,33.13
2018-11-04T12:46:39.845Z,35.07
2018-11-04T12:49:11.162Z,34.60
2018-11-04T12:51:42.321Z,37.00
2018-11-04T12:54:14.002Z,30.93
2018-11-04T12:56:45.251Z,31.27
2018-11-04T12:59:16.394Z,31.23
2018-11-04T13:01:47.674Z,32.53
2018-11-04T13:04:18.951Z,32.50
2018-11-04T13:06:50.040Z,29.37
2018-11-04T13:09:21.356Z,35.13
2018-11-04T13:11:52.578Z,31.47
2018-11-04T13:14:23.859Z,35.47
2018-11-04T13:16:55.102Z,32.27
2018-11-04T13:19:26.545Z,32.23
2018-11-04T13:21:57.760Z,34.03
2018-11-04T13:24:28.934Z,34.87
2018-11-04T13:27:00.388Z,36.20
2018-11-04T13:29:31.743Z,34.63
2018-11-04T13:32:03.113Z,35.10
2018-11-04T13:34:34.438Z,37.57
2018-11-04T13:37:05.563Z,37.23
2018-11-04T13:39:37.020Z,35.17
2018-11-04T13:42:08.302Z,31.87
2018-11-04T13:44:39.628Z,33.67
2018-11-04T13:47:13.196Z,33.90
2018-11-04T13:49:44.929Z,37.00
2018-11-04T13:52:16.299Z,34.37
2018-11-04T13:54:47.853Z,34.47
2018-11-04T13:57:19.586Z,34.43
2018-11-04T13:59:50.905Z,35.27
2018-11-04T14:02:22.078Z,31.90
2018-11-04T14:04:53.391Z,32.27
2018-11-04T14:07:24.649Z,35.40
2018-11-04T14:09:55.753Z,30.73
2018-11-04T14:12:26.956Z,30.23
2018-11-04T14:14:58.315Z,30.23
2018-11-04T14:17:29.569Z,36.97
2018-11-04T14:20:01.128Z,31.70
2018-11-04T14:22:32.274Z,29.37
2018-11-04T14:25:03.330Z,33.37
2018-11-04T14:27:34.594Z,32.27
2018-11-04T14:30:06.956Z,33.03
2018-11-04T14:32:38.184Z,34.53
2018-11-04T14:35:10.527Z,33.60
2018-11-04T14:37:42.534Z,35.43
2018-11-04T14:40:15.121Z,32.03
2018-11-04T14:42:46.571Z,29.70
2018-11-04T14:45:17.813Z,30.80
2018-11-04T14:47:49.022Z,30.97
2018-11-04T14:50:20.661Z,31.83
2018-11-04T14:52:51.933Z,32.80
2018-11-04T14:55:23.168Z,30.37
2018-11-04T14:57:54.369Z,30.23
2018-11-04T15:00:25.473Z,30.80
2018-11-04T15:02:56.586Z,28.17
2018-11-04T15:05:27.848Z,29.47
2018-11-04T15:07:59.068Z,34.03
2018-11-04T15:10:30.407Z,29.80
2018-11-04T15:13:01.620Z,27.97
2018-11-04T15:15:32.883Z,30.07
2018-11-04T15:18:04.327Z,31.97
2018-11-04T15:20:35.591Z,30.33
2018-11-04T15:23:06.849Z,33.23
2018-11-04T15:25:39.363Z,31.07
2018-11-04T15:28:10.704Z,32.87
2018-11-04T15:30:42.042Z,29.00
2018-11-04T15:33:13.287Z,29.17
2018-11-04T15:35:44.552Z,30.57
2018-11-04T15:38:15.863Z,29.63
2018-11-04T15:40:47.116Z,30.27
2018-11-04T15:43:19.090Z,32.83
2018-11-04T15:45:50.419Z,29.63
2018-11-04T15:48:21.572Z,33.90
2018-11-04T15:50:53.029Z,27.63
2018-11-04T15:53:24.425Z,31.00
2018-11-04T15:55:55.755Z,29.53
2018-11-04T15:58:26.998Z,27.17
2018-11-04T16:00:58.121Z,28.70
2018-11-04T16:03:29.198Z,32.00
2018-11-04T16:06:00.467Z,28.80
2018-11-04T16:08:31.663Z,29.67
2018-11-04T16:11:02.937Z,29.77
2018-11-04T16:13:34.156Z,28.20
2018-11-04T16:16:05.521Z,32.33
2018-11-04T16:18:36.733Z,33.10
2018-11-04T16:21:07.901Z,30.27
2018-11-04T16:23:39.785Z,28.90
2018-11-04T16:26:11.112Z,30.03
2018-11-04T16:28:42.485Z,30.77
2018-11-04T16:31:13.795Z,29.83
2018-11-04T16:33:45.112Z,31.53
2018-11-04T16:36:16.337Z,29.30
2018-11-04T16:38:47.647Z,31.40
2018-11-04T16:41:18.903Z,31.80
2018-11-04T16:43:50.403Z,34.40
2018-11-04T16:46:21.593Z,30.20
2018-11-04T16:48:52.885Z,25.53
2018-11-04T16:51:24.275Z,29.17
2018-11-04T16:53:55.450Z,35.97
2018-11-04T16:56:26.763Z,31.07
2018-11-04T16:58:58.057Z,27.60
2018-11-04T17:01:29.339Z,29.93
2018-11-04T17:04:00.573Z,29.47
2018-11-04T17:06:31.937Z,30.83
2018-11-04T17:09:03.167Z,31.60
2018-11-04T17:11:34.480Z,31.77
2018-11-04T17:14:05.824Z,32.70
2018-11-04T17:16:37.201Z,31.63
2018-11-04T17:19:08.652Z,33.43
2018-11-04T17:21:40.017Z,32.20
2018-11-04T17:24:11.370Z,29.83
2018-11-04T17:26:42.620Z,25.80
2018-11-04T17:29:13.929Z,26.63
2018-11-04T17:31:45.250Z,29.37
2018-11-04T17:34:16.535Z,34.03
2018-11-04T17:36:52.323Z,27.80
2018-11-04T17:39:23.950Z,30.60
2018-11-04T17:41:54.982Z,28.40
2018-11-04T17:44:26.279Z,30.63
2018-11-04T17:46:57.581Z,31.33
2018-11-04T17:49:28.756Z,30.73
2018-11-04T17:51:59.868Z,30.93
2018-11-04T17:54:31.045Z,30.83
2018-11-04T17:57:02.354Z,29.30
2018-11-04T17:59:33.797Z,32.40
2018-11-04T18:02:07.231Z,35.63
2018-11-04T18:04:40.138Z,29.53
2018-11-04T18:07:12.320Z,34.27
2018-11-04T18:09:45.441Z,34.13
2018-11-04T18:12:16.817Z,31.60
2018-11-04T18:14:47.985Z,32.10
2018-11-04T18:17:19.047Z,30.67
2018-11-04T18:19:50.050Z,36.27
2018-11-04T18:22:21.570Z,30.17
2018-11-04T18:24:52.903Z,30.90
2018-11-04T18:27:24.322Z,33.67
2018-11-04T18:29:56.381Z,33.13
2018-11-04T18:32:27.677Z,28.57
2018-11-04T18:34:58.911Z,28.90
2018-11-04T18:37:30.060Z,31.17
2018-11-04T18:40:01.291Z,32.77
2018-11-04T18:42:32.686Z,32.23
2018-11-04T18:45:03.856Z,27.97
2018-11-04T18:47:35.583Z,30.90
2018-11-04T18:50:07.324Z,31.23
2018-11-04T18:52:38.749Z,29.17
2018-11-04T18:55:11.218Z,29.90
2018-11-04T18:57:43.529Z,26.67
2018-11-04T19:00:16.382Z,28.90
2018-11-04T19:02:48.631Z,28.77
2018-11-04T19:05:19.935Z,29.60
2018-11-04T19:07:51.249Z,28.57
2018-11-04T19:10:22.420Z,30.37
2018-11-04T19:12:54.801Z,30.10
2018-11-04T19:15:26.172Z,30.03
2018-11-04T19:17:57.629Z,23.33
2018-11-04T19:20:28.862Z,25.73
2018-11-04T19:23:00.060Z,25.73
2018-11-04T19:25:31.327Z,25.40
2018-11-04T19:28:02.884Z,26.30
2018-11-04T19:30:34.553Z,32.00
2018-11-04T19:33:05.919Z,23.03
2018-11-04T19:35:37.382Z,22.73
2018-11-04T19:38:08.580Z,24.77
2018-11-04T19:40:39.885Z,23.23
2018-11-04T19:43:13.999Z,20.10
2018-11-04T19:45:45.365Z,36.20
2018-11-04T19:48:16.715Z,38.80
2018-11-04T19:50:47.885Z,32.93
2018-11-04T19:53:19.349Z,26.13
2018-11-04T19:55:50.621Z,25.50
2018-11-04T19:58:21.947Z,24.53
2018-11-04T20:00:53.283Z,18.10
2018-11-04T20:03:24.485Z,28.70
2018-11-04T20:05:55.775Z,19.17
2018-11-04T20:08:26.970Z,19.50
2018-11-04T20:10:58.242Z,21.53
2018-11-04T20:13:46.621Z,22.03
2018-11-04T20:16:17.856Z,22.57
2018-11-04T20:19:08.549Z,23.00
2018-11-04T20:21:39.896Z,20.63
2018-11-04T20:24:28.655Z,19.33
2018-11-04T20:27:00.017Z,19.23
2018-11-04T20:29:31.310Z,20.03
2018-11-04T20:32:19.839Z,21.83
2018-11-04T20:34:52.714Z,23.37
2018-11-04T20:37:23.978Z,23.03
2018-11-04T20:40:12.398Z,18.73
2018-11-04T20:42:43.645Z,17.93
2018-11-04T20:45:14.874Z,22.70
2018-11-04T20:48:03.532Z,17.73
2018-11-04T20:50:51.948Z,18.97
2018-11-04T20:53:23.159Z,17.00
2018-11-04T20:56:11.797Z,19.37
2018-11-04T20:58:43.129Z,20.57
2018-11-04T21:01:14.482Z,19.50
2018-11-04T21:03:45.834Z,18.63
2018-11-04T21:06:17.149Z,22.40
2018-11-04T21:08:48.482Z,18.17
2018-11-04T21:11:19.789Z,20.77
2018-11-04T21:13:51.074Z,19.77
2018-11-04T21:16:22.206Z,18.67
2018-11-04T21:18:53.543Z,17.30
2018-11-04T21:21:24.795Z,17.20
2018-11-04T21:23:56.108Z,17.90
2018-11-04T21:26:27.441Z,23.40
2018-11-04T21:28:58.981Z,21.40
2018-11-04T21:31:30.026Z,23.30
2018-11-04T21:34:01.400Z,22.83
2018-11-04T21:36:32.825Z,22.73
2018-11-04T21:39:05.364Z,25.70
2018-11-04T21:41:36.862Z,22.13
2018-11-04T21:44:08.907Z,21.63
2018-11-04T21:46:40.043Z,20.60
2018-11-04T21:49:11.475Z,20.43
2018-11-04T21:51:42.822Z,20.70
2018-11-04T21:54:14.068Z,23.23
2018-11-04T21:56:45.494Z,19.23
2018-11-04T21:59:16.873Z,22.30
2018-11-04T22:01:48.142Z,19.87
2018-11-04T22:04:19.624Z,18.63
2018-11-04T22:06:51.260Z,19.33
2018-11-04T22:09:22.380Z,19.27
2018-11-04T22:11:53.833Z,18.07
2018-11-04T22:14:25.115Z,17.80
2018-11-04T22:16:56.345Z,19.60
2018-11-04T22:19:27.639Z,20.97
2018-11-04T22:21:58.828Z,17.23
2018-11-04T22:24:29.960Z,17.60
2018-11-04T22:27:01.211Z,18.47
2018-11-04T22:29:32.546Z,17.33
2018-11-04T22:32:03.877Z,17.67
2018-11-04T22:34:35.113Z,19.00
2018-11-04T22:37:06.294Z,19.03
2018-11-04T22:39:37.661Z,20.53
2018-11-04T22:42:08.969Z,22.13
2018-11-04T22:44:40.173Z,19.93
2018-11-04T22:47:11.394Z,17.67
2018-11-04T22:49:42.633Z,20.33
2018-11-04T22:52:13.915Z,20.97
2018-11-04T22:54:45.167Z,16.87
2018-11-04T22:57:16.321Z,19.43
2018-11-04T22:59:47.579Z,20.27
2018-11-04T23:02:18.841Z,17.93
2018-11-04T23:05:07.004Z,20.63
2018-11-04T23:07:38.190Z,19.47
2018-11-04T23:10:10.913Z,18.83
2018-11-04T23:12:42.305Z,19.87
2018-11-04T23:15:13.415Z,18.90
2018-11-04T23:17:44.880Z,18.33
2018-11-04T23:20:16.024Z,18.17
2018-11-04T23:22:47.342Z,18.87
2018-11-04T23:25:18.660Z,20.67
2018-11-04T23:27:50.090Z,21.00
2018-11-04T23:30:21.337Z,17.33
2018-11-04T23:32:52.457Z,17.00
2018-11-04T23:35:23.660Z,17.13
2018-11-04T23:37:54.881Z,19.77
2018-11-04T23:40:26.225Z,18.90
2018-11-04T23:42:57.360Z,17.10
2018-11-04T23:45:28.621Z,18.53
2018-11-04T23:47:59.980Z,19.00
2018-11-04T23:50:31.261Z,15.73
2018-11-04T23:53:02.581Z,15.03
2018-11-04T23:55:33.834Z,16.17
2018-11-04T23:58:05.130Z,15.10
